createdAt,value
2022-08-20T00:03:04.671Z,22.94
2022-08-20T00:08:08.183Z,22.78
2022-08-20T00:13:18.971Z,23.05
2022-08-20T00:18:22.059Z,22.94
2022-08-20T00:23:25.981Z,22.88
2022-08-20T00:28:30.069Z,23.06
2022-08-20T00:33:33.185Z,22.93
2022-08-20T00:38:37.397Z,22.32
2022-08-20T00:43:44.991Z,22.60
2022-08-20T00:48:50.728Z,22.55
2022-08-20T00:53:53.668Z,22.72
2022-08-20T00:58:58.165Z,22.72
2022-08-20T01:04:01.118Z,22.16
2022-08-20T01:09:05.891Z,22.07
2022-08-20T01:14:32.049Z,21.26
2022-08-20T01:19:39.203Z,21.67
2022-08-20T01:24:43.630Z,21.24
2022-08-20T01:29:48.256Z,21.44
2022-08-20T01:34:50.974Z,21.25
2022-08-20T01:39:54.645Z,21.87
2022-08-20T01:44:58.808Z,22.00
2022-08-20T01:50:13.380Z,22.62
2022-08-20T01:55:16.268Z,22.54
2022-08-20T02:00:22.306Z,22.54
2022-08-20T02:05:30.498Z,22.28
2022-08-20T02:10:36.194Z,22.63
2022-08-20T02:15:42.936Z,22.54
2022-08-20T02:20:46.940Z,22.49
2022-08-20T02:25:49.794Z,22.15
2022-08-20T02:30:56.278Z,22.66
2022-08-20T02:35:59.000Z,22.42
2022-08-20T02:41:02.646Z,22.12
2022-08-20T02:46:08.662Z,22.28
2022-08-20T02:51:11.769Z,21.44
2022-08-20T02:56:15.121Z,22.27
2022-08-20T03:01:19.982Z,22.30
2022-08-20T03:06:23.703Z,21.92
2022-08-20T03:11:26.814Z,21.58
2022-08-20T03:16:30.974Z,22.13
2022-08-20T03:21:33.680Z,21.65
2022-08-20T03:26:36.849Z,21.73
2022-08-20T03:31:41.213Z,21.84
2022-08-20T03:36:43.999Z,22.42
2022-08-20T03:41:46.680Z,21.89
2022-08-20T03:46:53.151Z,22.45
2022-08-20T03:51:57.515Z,22.15
2022-08-20T03:57:02.885Z,22.28
2022-08-20T04:02:16.390Z,22.32
2022-08-20T04:07:25.423Z,21.94
2022-08-20T04:12:28.188Z,22.46
2022-08-20T04:17:33.443Z,22.03
2022-08-20T04:22:36.829Z,22.15
2022-08-20T04:27:40.094Z,22.24
2022-08-20T04:32:44.328Z,21.83
2022-08-20T04:37:49.156Z,21.85
2022-08-20T04:42:51.913Z,21.92
2022-08-20T04:47:58.442Z,21.56
2022-08-20T04:53:01.083Z,22.30
2022-08-20T04:58:05.884Z,22.02
2022-08-20T05:03:09.913Z,21.51
2022-08-20T05:08:19.775Z,21.87
2022-08-20T05:13:27.119Z,21.98
2022-08-20T05:18:33.440Z,22.05
2022-08-20T05:23:40.534Z,21.88
2022-08-20T05:28:52.753Z,22.07
2022-08-20T05:34:03.090Z,22.18
2022-08-20T05:39:05.699Z,21.58
2022-08-20T05:44:13.119Z,21.96
2022-08-20T05:49:21.163Z,22.36
2022-08-20T05:54:23.884Z,22.37
2022-08-20T05:59:27.532Z,22.17
2022-08-20T06:04:32.056Z,22.13
2022-08-20T06:09:35.024Z,21.87
2022-08-20T06:14:37.803Z,21.95
2022-08-20T06:19:44.199Z,21.93
2022-08-20T06:24:47.894Z,21.57
2022-08-20T06:29:51.711Z,21.77
2022-08-20T06:34:55.764Z,21.94
2022-08-20T06:40:02.633Z,21.82
2022-08-20T06:45:05.946Z,21.40
2022-08-20T06:50:13.375Z,21.85
2022-08-20T06:55:18.134Z,22.01
2022-08-20T07:00:24.070Z,21.76
2022-08-20T07:05:28.796Z,21.92
2022-08-20T07:10:32.062Z,21.84
2022-08-20T07:15:34.762Z,21.86
2022-08-20T07:20:42.912Z,21.61
2022-08-20T07:25:46.129Z,21.61
2022-08-20T07:31:13.264Z,22.18
2022-08-20T07:36:21.330Z,22.35
2022-08-20T07:41:24.063Z,22.27
2022-08-20T07:46:33.577Z,21.89
2022-08-20T07:51:43.577Z,21.99
2022-08-20T07:56:46.539Z,21.75
2022-08-20T08:01:52.331Z,21.88
2022-08-20T08:06:59.945Z,21.88
2022-08-20T08:12:04.822Z,22.05
2022-08-20T08:17:09.403Z,22.18
2022-08-20T08:22:17.397Z,22.17
2022-08-20T08:27:20.296Z,22.32
2022-08-20T08:32:24.983Z,22.15
2022-08-20T08:37:30.796Z,22.39
2022-08-20T08:42:43.436Z,22.48
2022-08-20T08:47:46.712Z,22.43
2022-08-20T08:52:54.873Z,22.29
2022-08-20T08:58:04.456Z,22.61
2022-08-20T09:03:26.878Z,22.55
2022-08-20T09:08:37.002Z,22.81
2022-08-20T09:13:42.959Z,22.69
2022-08-20T09:18:47.275Z,22.96
2022-08-20T09:23:54.203Z,22.70
2022-08-20T09:28:59.861Z,22.86
2022-08-20T09:34:03.269Z,22.87
2022-08-20T09:39:07.376Z,22.68
2022-08-20T09:44:15.549Z,22.03
2022-08-20T09:49:19.372Z,22.56
2022-08-20T09:54:23.797Z,22.30
2022-08-20T09:59:27.277Z,22.19
2022-08-20T10:04:30.077Z,22.45
2022-08-20T10:09:40.025Z,22.33
2022-08-20T10:14:42.989Z,22.48
2022-08-20T10:19:45.945Z,22.64
2022-08-20T10:24:50.381Z,22.79
2022-08-20T10:29:53.083Z,23.10
2022-08-20T10:34:55.924Z,22.14
2022-08-20T10:40:00.133Z,23.03
2022-08-20T10:45:02.980Z,23.20
2022-08-20T10:50:10.904Z,23.37
2022-08-20T10:55:18.808Z,23.41
2022-08-20T11:00:22.762Z,23.07
2022-08-20T11:05:25.600Z,22.68
2022-08-20T11:10:35.141Z,23.69
2022-08-20T11:15:40.612Z,23.64
2022-08-20T11:20:43.571Z,23.20
2022-08-20T11:25:47.894Z,23.26
2022-08-20T11:30:50.869Z,23.21
2022-08-20T11:35:53.633Z,23.48
2022-08-20T11:40:57.724Z,24.03
2022-08-20T11:46:02.927Z,23.91
2022-08-20T11:51:05.980Z,23.84
2022-08-20T11:56:10.712Z,23.94
2022-08-20T12:01:16.134Z,23.77
2022-08-20T12:06:18.924Z,23.98
2022-08-20T12:11:23.117Z,23.83
2022-08-20T12:16:25.937Z,23.64
2022-08-20T12:21:32.383Z,23.33
2022-08-20T12:26:36.600Z,23.21
2022-08-20T12:31:39.301Z,23.45
2022-08-20T12:36:42.847Z,23.47
2022-08-20T12:41:46.861Z,23.50
2022-08-20T12:46:49.494Z,23.74
2022-08-20T12:51:52.168Z,23.45
2022-08-20T12:56:56.381Z,24.00
2022-08-20T13:02:06.967Z,24.08
2022-08-20T13:07:21.733Z,23.79
2022-08-20T13:12:25.923Z,23.91
2022-08-20T13:17:38.370Z,24.44
2022-08-20T13:22:42.242Z,25.10
2022-08-20T13:27:46.687Z,25.70
2022-08-20T13:32:49.944Z,26.19
2022-08-20T13:37:53.165Z,25.95
2022-08-20T13:42:57.581Z,25.82
2022-08-20T13:48:00.513Z,25.81
2022-08-20T13:53:03.586Z,26.26
2022-08-20T13:58:08.605Z,26.50
2022-08-20T14:03:13.019Z,26.80
2022-08-20T14:08:20.158Z,26.69
2022-08-20T14:13:26.587Z,26.66
2022-08-20T14:18:30.719Z,27.02
2022-08-20T14:23:36.969Z,26.83
2022-08-20T14:28:41.235Z,26.85
2022-08-20T14:33:46.115Z,26.25
2022-08-20T14:38:48.791Z,26.29
2022-08-20T14:43:53.858Z,26.23
2022-08-20T14:48:56.552Z,25.82
2022-08-20T14:53:59.208Z,26.25
2022-08-20T14:59:03.775Z,26.46
2022-08-20T15:04:09.231Z,25.95
2022-08-20T15:09:12.441Z,25.68
2022-08-20T15:14:18.422Z,25.67
2022-08-20T15:19:23.797Z,25.65
2022-08-20T15:24:26.622Z,25.50
2022-08-20T15:29:32.732Z,25.47
2022-08-20T15:34:37.168Z,25.14
2022-08-20T15:39:41.045Z,25.05
2022-08-20T15:44:45.701Z,25.39
2022-08-20T15:49:50.356Z,25.21
2022-08-20T15:54:56.218Z,25.11
2022-08-20T16:00:11.880Z,25.15
2022-08-20T16:05:24.690Z,25.08
2022-08-20T16:10:35.044Z,25.11
2022-08-20T16:15:48.893Z,24.48
2022-08-20T16:20:55.212Z,24.93
2022-08-20T16:26:10.241Z,24.75
2022-08-20T16:31:18.944Z,24.99
2022-08-20T16:36:31.056Z,24.76
2022-08-20T16:41:40.332Z,24.80
2022-08-20T16:46:50.369Z,24.80
2022-08-20T16:51:54.062Z,24.75
2022-08-20T16:57:01.697Z,24.45
2022-08-20T17:02:10.711Z,24.34
2022-08-20T17:07:13.686Z,24.26
2022-08-20T17:12:22.464Z,24.36
2022-08-20T17:17:29.096Z,24.44
2022-08-20T17:22:40.440Z,24.35
2022-08-20T17:27:43.240Z,24.03
2022-08-20T17:32:57.442Z,24.21
2022-08-20T17:38:04.042Z,24.23
2022-08-20T17:43:23.067Z,24.00
2022-08-20T17:48:32.232Z,24.19
2022-08-20T17:53:38.284Z,24.02
2022-08-20T17:58:54.176Z,24.08
2022-08-20T18:03:59.967Z,23.63
2022-08-20T18:09:08.863Z,23.81
2022-08-20T18:14:32.758Z,23.90
2022-08-20T18:20:09.972Z,23.71
2022-08-20T18:25:28.624Z,23.74
2022-08-20T18:30:33.254Z,23.70
2022-08-20T18:35:45.693Z,23.62
2022-08-20T18:40:53.121Z,23.58
2022-08-20T18:46:13.122Z,23.30
2022-08-20T18:51:22.088Z,22.83
2022-08-20T18:56:34.356Z,23.13
2022-08-20T21:41:47.440Z,21.58
2022-08-20T21:46:50.847Z,21.24
2022-08-20T21:51:54.440Z,20.99
2022-08-20T21:57:09.387Z,21.73
2022-08-20T22:02:14.511Z,21.97
2022-08-20T22:07:18.406Z,21.87
2022-08-20T22:12:24.956Z,21.76
2022-08-20T22:17:27.941Z,21.83
2022-08-20T22:22:35.240Z,21.40
2022-08-20T22:27:42.133Z,21.57
2022-08-20T22:32:52.404Z,21.60
2022-08-20T22:37:55.300Z,21.54
2022-08-20T22:43:00.046Z,21.67
2022-08-20T22:48:03.634Z,21.75
2022-08-20T22:53:08.023Z,21.12
2022-08-20T22:58:12.393Z,21.64
2022-08-20T23:03:18.043Z,21.61
2022-08-20T23:08:41.679Z,21.20
2022-08-20T23:13:45.784Z,21.58
2022-08-20T23:18:48.871Z,21.40
2022-08-20T23:23:51.597Z,21.30
2022-08-20T23:28:56.233Z,21.37
2022-08-20T23:33:58.942Z,21.13
2022-08-20T23:39:01.750Z,20.98
2022-08-20T23:44:25.002Z,21.32
2022-08-20T23:49:30.457Z,20.92
2022-08-20T23:54:33.952Z,21.41
2022-08-20T23:59:37.978Z,20.67
